sensor_id;sensor_type;location;lat;lon;timestamp;P1;durP1;ratioP1;P2;durP2;ratioP2
6223;SDS011;3145;42.726;23.342;2023-07-20T00:01:50;7.87;;;2.37;;
6223;SDS011;3145;42.726;23.342;2023-07-20T00:04:16;5.17;;;2.83;;
6223;SDS011;3145;42.726;23.342;2023-07-20T00:06:43;6.93;;;2.30;;
6223;SDS011;3145;42.726;23.342;2023-07-20T00:09:10;4.23;;;2.33;;
6223;SDS011;3145;42.726;23.342;2023-07-20T00:11:37;7.87;;;3.30;;
6223;SDS011;3145;42.726;23.342;2023-07-20T00:14:04;4.87;;;3.00;;
6223;SDS011;3145;42.726;23.342;2023-07-20T00:16:33;5.93;;;2.53;;
6223;SDS011;3145;42.726;23.342;2023-07-20T00:18:59;6.20;;;2.53;;
6223;SDS011;3145;42.726;23.342;2023-07-20T00:21:26;22.07;;;4.00;;
6223;SDS011;3145;42.726;23.342;2023-07-20T00:23:53;5.27;;;3.07;;
6223;SDS011;3145;42.726;23.342;2023-07-20T00:26:20;7.90;;;2.90;;
6223;SDS011;3145;42.726;23.342;2023-07-20T00:28:49;3.97;;;2.67;;
6223;SDS011;3145;42.726;23.342;2023-07-20T00:31:16;6.43;;;2.17;;
6223;SDS011;3145;42.726;23.342;2023-07-20T00:33:44;11.93;;;2.63;;
6223;SDS011;3145;42.726;23.342;2023-07-20T00:36:11;9.77;;;2.53;;
6223;SDS011;3145;42.726;23.342;2023-07-20T00:38:38;7.60;;;2.63;;
6223;SDS011;3145;42.726;23.342;2023-07-20T00:41:06;4.93;;;2.63;;
6223;SDS011;3145;42.726;23.342;2023-07-20T00:43:32;4.70;;;2.80;;
6223;SDS011;3145;42.726;23.342;2023-07-20T00:45:59;6.43;;;3.27;;
6223;SDS011;3145;42.726;23.342;2023-07-20T00:48:28;6.03;;;2.53;;
6223;SDS011;3145;42.726;23.342;2023-07-20T00:50:56;8.53;;;3.20;;
6223;SDS011;3145;42.726;23.342;2023-07-20T00:53:24;4.57;;;2.57;;
6223;SDS011;3145;42.726;23.342;2023-07-20T00:55:51;10.97;;;2.43;;
6223;SDS011;3145;42.726;23.342;2023-07-20T00:58:18;7.47;;;2.57;;
6223;SDS011;3145;42.726;23.342;2023-07-20T01:00:45;4.50;;;2.27;;
6223;SDS011;3145;42.726;23.342;2023-07-20T01:03:13;5.63;;;2.67;;
6223;SDS011;3145;42.726;23.342;2023-07-20T01:05:42;8.70;;;2.57;;
6223;SDS011;3145;42.726;23.342;2023-07-20T01:08:17;5.50;;;2.43;;
6223;SDS011;3145;42.726;23.342;2023-07-20T01:10:53;4.80;;;2.53;;
6223;SDS011;3145;42.726;23.342;2023-07-20T01:13:23;6.27;;;2.67;;
6223;SDS011;3145;42.726;23.342;2023-07-20T01:15:57;6.37;;;3.00;;
6223;SDS011;3145;42.726;23.342;2023-07-20T01:18:26;7.43;;;2.63;;
6223;SDS011;3145;42.726;23.342;2023-07-20T01:20:53;8.70;;;2.87;;
6223;SDS011;3145;42.726;23.342;2023-07-20T01:23:31;8.67;;;2.57;;
6223;SDS011;3145;42.726;23.342;2023-07-20T01:26:20;12.70;;;2.43;;
6223;SDS011;3145;42.726;23.342;2023-07-20T01:29:17;13.37;;;2.90;;
6223;SDS011;3145;42.726;23.342;2023-07-20T01:31:51;7.70;;;2.43;;
6223;SDS011;3145;42.726;23.342;2023-07-20T01:34:19;5.47;;;2.07;;
6223;SDS011;3145;42.726;23.342;2023-07-20T01:36:48;6.63;;;2.50;;
6223;SDS011;3145;42.726;23.342;2023-07-20T01:39:18;7.23;;;2.30;;
6223;SDS011;3145;42.726;23.342;2023-07-20T01:41:47;6.57;;;2.37;;
6223;SDS011;3145;42.726;23.342;2023-07-20T01:44:13;6.33;;;2.10;;
6223;SDS011;3145;42.726;23.342;2023-07-20T01:46:40;4.23;;;2.60;;
6223;SDS011;3145;42.726;23.342;2023-07-20T01:49:08;6.70;;;2.17;;
6223;SDS011;3145;42.726;23.342;2023-07-20T01:51:35;7.83;;;2.47;;
6223;SDS011;3145;42.726;23.342;2023-07-20T01:54:02;4.00;;;2.37;;
6223;SDS011;3145;42.726;23.342;2023-07-20T01:56:29;11.37;;;2.87;;
6223;SDS011;3145;42.726;23.342;2023-07-20T01:58:55;11.07;;;2.73;;
6223;SDS011;3145;42.726;23.342;2023-07-20T02:01:22;6.00;;;2.10;;
6223;SDS011;3145;42.726;23.342;2023-07-20T02:03:49;3.47;;;2.13;;
6223;SDS011;3145;42.726;23.342;2023-07-20T02:06:17;6.67;;;2.30;;
6223;SDS011;3145;42.726;23.342;2023-07-20T02:08:44;5.80;;;2.40;;
6223;SDS011;3145;42.726;23.342;2023-07-20T02:11:10;4.30;;;2.40;;
6223;SDS011;3145;42.726;23.342;2023-07-20T02:13:37;6.83;;;2.03;;
6223;SDS011;3145;42.726;23.342;2023-07-20T02:16:04;6.70;;;2.23;;
6223;SDS011;3145;42.726;23.342;2023-07-20T02:18:31;4.77;;;2.30;;
6223;SDS011;3145;42.726;23.342;2023-07-20T02:20:58;5.57;;;2.53;;
6223;SDS011;3145;42.726;23.342;2023-07-20T02:23:26;7.97;;;2.13;;
6223;SDS011;3145;42.726;23.342;2023-07-20T02:25:53;3.17;;;2.10;;
6223;SDS011;3145;42.726;23.342;2023-07-20T02:28:19;7.47;;;2.37;;
6223;SDS011;3145;42.726;23.342;2023-07-20T02:30:46;3.50;;;2.43;;
6223;SDS011;3145;42.726;23.342;2023-07-20T02:33:15;2.57;;;2.00;;
6223;SDS011;3145;42.726;23.342;2023-07-20T02:35:42;4.80;;;2.57;;
6223;SDS011;3145;42.726;23.342;2023-07-20T02:38:09;12.50;;;2.77;;
6223;SDS011;3145;42.726;23.342;2023-07-20T02:40:38;6.00;;;2.67;;
6223;SDS011;3145;42.726;23.342;2023-07-20T02:43:04;6.17;;;2.80;;
6223;SDS011;3145;42.726;23.342;2023-07-20T02:45:31;5.77;;;2.50;;
6223;SDS011;3145;42.726;23.342;2023-07-20T02:47:58;2.93;;;2.23;;
6223;SDS011;3145;42.726;23.342;2023-07-20T02:50:25;5.60;;;2.67;;
6223;SDS011;3145;42.726;23.342;2023-07-20T02:52:51;7.70;;;2.73;;
6223;SDS011;3145;42.726;23.342;2023-07-20T02:55:18;3.50;;;2.73;;
6223;SDS011;3145;42.726;23.342;2023-07-20T02:57:46;5.23;;;2.47;;
6223;SDS011;3145;42.726;23.342;2023-07-20T03:00:13;6.80;;;2.17;;
6223;SDS011;3145;42.726;23.342;2023-07-20T03:02:41;10.10;;;2.83;;
6223;SDS011;3145;42.726;23.342;2023-07-20T03:05:08;8.30;;;3.67;;
6223;SDS011;3145;42.726;23.342;2023-07-20T03:07:35;4.20;;;2.23;;
6223;SDS011;3145;42.726;23.342;2023-07-20T03:10:03;12.20;;;2.83;;
6223;SDS011;3145;42.726;23.342;2023-07-20T03:12:32;9.57;;;3.53;;
6223;SDS011;3145;42.726;23.342;2023-07-20T03:15:01;9.37;;;3.37;;
6223;SDS011;3145;42.726;23.342;2023-07-20T03:17:28;5.90;;;3.13;;
6223;SDS011;3145;42.726;23.342;2023-07-20T03:19:55;5.03;;;2.67;;
6223;SDS011;3145;42.726;23.342;2023-07-20T03:22:21;12.97;;;3.50;;
6223;SDS011;3145;42.726;23.342;2023-07-20T03:24:49;8.37;;;4.17;;
6223;SDS011;3145;42.726;23.342;2023-07-20T03:27:17;12.70;;;4.10;;
6223;SDS011;3145;42.726;23.342;2023-07-20T03:29:44;10.50;;;3.63;;
6223;SDS011;3145;42.726;23.342;2023-07-20T03:32:12;7.73;;;4.03;;
6223;SDS011;3145;42.726;23.342;2023-07-20T03:34:39;7.27;;;3.37;;
6223;SDS011;3145;42.726;23.342;2023-07-20T03:37:07;8.37;;;3.90;;
6223;SDS011;3145;42.726;23.342;2023-07-20T03:39:34;4.90;;;3.10;;
6223;SDS011;3145;42.726;23.342;2023-07-20T03:42:00;5.00;;;3.30;;
6223;SDS011;3145;42.726;23.342;2023-07-20T03:44:27;6.63;;;3.77;;
6223;SDS011;3145;42.726;23.342;2023-07-20T03:46:54;10.53;;;3.57;;
6223;SDS011;3145;42.726;23.342;2023-07-20T03:49:22;8.43;;;3.77;;
6223;SDS011;3145;42.726;23.342;2023-07-20T03:51:49;9.47;;;3.83;;
6223;SDS011;3145;42.726;23.342;2023-07-20T03:54:16;6.40;;;3.50;;
6223;SDS011;3145;42.726;23.342;2023-07-20T03:56:44;6.67;;;3.73;;
6223;SDS011;3145;42.726;23.342;2023-07-20T03:59:11;9.20;;;3.77;;
6223;SDS011;3145;42.726;23.342;2023-07-20T04:01:38;6.80;;;3.80;;
6223;SDS011;3145;42.726;23.342;2023-07-20T04:04:06;7.33;;;3.53;;
6223;SDS011;3145;42.726;23.342;2023-07-20T04:06:35;11.60;;;3.57;;
6223;SDS011;3145;42.726;23.342;2023-07-20T04:09:02;7.00;;;3.73;;
6223;SDS011;3145;42.726;23.342;2023-07-20T04:11:29;8.57;;;3.53;;
6223;SDS011;3145;42.726;23.342;2023-07-20T04:13:56;8.60;;;3.50;;
6223;SDS011;3145;42.726;23.342;2023-07-20T04:16:23;11.87;;;4.53;;
6223;SDS011;3145;42.726;23.342;2023-07-20T04:18:50;11.27;;;4.37;;
6223;SDS011;3145;42.726;23.342;2023-07-20T04:21:17;11.93;;;4.87;;
6223;SDS011;3145;42.726;23.342;2023-07-20T04:23:45;14.37;;;5.40;;
6223;SDS011;3145;42.726;23.342;2023-07-20T04:26:12;12.27;;;4.67;;
6223;SDS011;3145;42.726;23.342;2023-07-20T04:28:39;10.57;;;5.53;;
6223;SDS011;3145;42.726;23.342;2023-07-20T04:31:10;13.63;;;5.93;;
6223;SDS011;3145;42.726;23.342;2023-07-20T04:33:37;10.77;;;5.83;;
6223;SDS011;3145;42.726;23.342;2023-07-20T04:36:04;10.00;;;5.90;;
6223;SDS011;3145;42.726;23.342;2023-07-20T04:38:31;8.93;;;4.63;;
6223;SDS011;3145;42.726;23.342;2023-07-20T04:40:59;7.30;;;5.43;;
6223;SDS011;3145;42.726;23.342;2023-07-20T04:43:27;11.43;;;6.73;;
6223;SDS011;3145;42.726;23.342;2023-07-20T04:45:55;12.83;;;5.50;;
6223;SDS011;3145;42.726;23.342;2023-07-20T04:48:22;10.67;;;4.63;;
6223;SDS011;3145;42.726;23.342;2023-07-20T04:50:48;9.07;;;5.27;;
6223;SDS011;3145;42.726;23.342;2023-07-20T04:53:15;13.40;;;5.27;;
6223;SDS011;3145;42.726;23.342;2023-07-20T04:55:47;13.67;;;4.87;;
6223;SDS011;3145;42.726;23.342;2023-07-20T04:58:18;11.53;;;5.27;;
6223;SDS011;3145;42.726;23.342;2023-07-20T05:00:45;11.90;;;4.07;;
6223;SDS011;3145;42.726;23.342;2023-07-20T05:03:12;10.13;;;4.57;;
6223;SDS011;3145;42.726;23.342;2023-07-20T05:05:39;10.95;;;4.80;;
6223;SDS011;3145;42.726;23.342;2023-07-20T05:08:05;13.40;;;4.53;;
6223;SDS011;3145;42.726;23.342;2023-07-20T05:10:32;11.15;;;4.70;;
6223;SDS011;3145;42.726;23.342;2023-07-20T05:12:59;12.63;;;4.75;;
6223;SDS011;3145;42.726;23.342;2023-07-20T05:15:27;10.20;;;4.25;;
6223;SDS011;3145;42.726;23.342;2023-07-20T05:17:54;9.90;;;4.45;;
6223;SDS011;3145;42.726;23.342;2023-07-20T05:20:21;7.65;;;4.22;;
6223;SDS011;3145;42.726;23.342;2023-07-20T05:22:47;12.88;;;4.75;;
6223;SDS011;3145;42.726;23.342;2023-07-20T05:25:14;5.57;;;3.92;;
6223;SDS011;3145;42.726;23.342;2023-07-20T05:27:43;12.82;;;5.30;;
6223;SDS011;3145;42.726;23.342;2023-07-20T05:30:11;5.88;;;4.22;;
6223;SDS011;3145;42.726;23.342;2023-07-20T05:32:39;11.43;;;4.20;;
6223;SDS011;3145;42.726;23.342;2023-07-20T05:35:07;9.18;;;3.80;;
6223;SDS011;3145;42.726;23.342;2023-07-20T05:37:36;9.27;;;4.18;;
6223;SDS011;3145;42.726;23.342;2023-07-20T05:40:03;6.82;;;3.75;;
6223;SDS011;3145;42.726;23.342;2023-07-20T05:42:31;7.75;;;4.25;;
6223;SDS011;3145;42.726;23.342;2023-07-20T05:44:58;11.20;;;4.25;;
6223;SDS011;3145;42.726;23.342;2023-07-20T05:47:24;7.63;;;3.92;;
6223;SDS011;3145;42.726;23.342;2023-07-20T05:49:52;9.32;;;3.78;;
6223;SDS011;3145;42.726;23.342;2023-07-20T05:52:19;10.85;;;4.88;;
6223;SDS011;3145;42.726;23.342;2023-07-20T05:54:46;9.30;;;4.25;;
6223;SDS011;3145;42.726;23.342;2023-07-20T05:57:13;10.88;;;4.57;;
6223;SDS011;3145;42.726;23.342;2023-07-20T05:59:39;8.82;;;4.32;;
6223;SDS011;3145;42.726;23.342;2023-07-20T06:02:09;8.10;;;4.82;;
6223;SDS011;3145;42.726;23.342;2023-07-20T06:04:36;7.75;;;4.60;;
6223;SDS011;3145;42.726;23.342;2023-07-20T06:07:04;8.30;;;4.07;;
6223;SDS011;3145;42.726;23.342;2023-07-20T06:09:32;11.82;;;4.53;;
6223;SDS011;3145;42.726;23.342;2023-07-20T06:11:59;10.25;;;4.22;;
6223;SDS011;3145;42.726;23.342;2023-07-20T06:14:26;8.65;;;4.13;;
6223;SDS011;3145;42.726;23.342;2023-07-20T06:16:52;13.75;;;4.63;;
6223;SDS011;3145;42.726;23.342;2023-07-20T06:19:19;7.80;;;4.18;;
6223;SDS011;3145;42.726;23.342;2023-07-20T06:21:47;5.43;;;3.83;;
6223;SDS011;3145;42.726;23.342;2023-07-20T06:24:16;9.40;;;4.25;;
6223;SDS011;3145;42.726;23.342;2023-07-20T06:26:42;11.30;;;3.58;;
6223;SDS011;3145;42.726;23.342;2023-07-20T06:29:09;10.75;;;3.40;;
6223;SDS011;3145;42.726;23.342;2023-07-20T06:31:36;8.52;;;4.22;;
6223;SDS011;3145;42.726;23.342;2023-07-20T06:34:03;9.90;;;3.67;;
6223;SDS011;3145;42.726;23.342;2023-07-20T06:36:30;10.40;;;3.50;;
6223;SDS011;3145;42.726;23.342;2023-07-20T06:38:57;8.55;;;3.33;;
6223;SDS011;3145;42.726;23.342;2023-07-20T06:41:25;7.40;;;3.42;;
6223;SDS011;3145;42.726;23.342;2023-07-20T06:43:52;10.63;;;3.40;;
6223;SDS011;3145;42.726;23.342;2023-07-20T06:46:23;12.43;;;3.75;;
6223;SDS011;3145;42.726;23.342;2023-07-20T06:48:50;7.88;;;3.97;;
6223;SDS011;3145;42.726;23.342;2023-07-20T06:51:17;9.05;;;3.65;;
6223;SDS011;3145;42.726;23.342;2023-07-20T06:53:44;10.93;;;3.30;;
6223;SDS011;3145;42.726;23.342;2023-07-20T06:56:11;6.85;;;3.28;;
6223;SDS011;3145;42.726;23.342;2023-07-20T06:58:39;8.35;;;3.80;;
6223;SDS011;3145;42.726;23.342;2023-07-20T07:01:06;10.73;;;3.20;;
6223;SDS011;3145;42.726;23.342;2023-07-20T07:03:33;9.13;;;4.00;;
6223;SDS011;3145;42.726;23.342;2023-07-20T07:06:01;11.18;;;3.33;;
6223;SDS011;3145;42.726;23.342;2023-07-20T07:08:28;6.60;;;3.28;;
6223;SDS011;3145;42.726;23.342;2023-07-20T07:10:55;8.32;;;3.33;;
6223;SDS011;3145;42.726;23.342;2023-07-20T07:13:22;12.30;;;3.40;;
6223;SDS011;3145;42.726;23.342;2023-07-20T07:15:51;7.97;;;3.22;;
6223;SDS011;3145;42.726;23.342;2023-07-20T07:18:18;7.20;;;2.78;;
6223;SDS011;3145;42.726;23.342;2023-07-20T07:20:54;8.95;;;3.05;;
6223;SDS011;3145;42.726;23.342;2023-07-20T07:23:21;8.30;;;3.72;;
6223;SDS011;3145;42.726;23.342;2023-07-20T07:25:47;12.57;;;3.45;;
6223;SDS011;3145;42.726;23.342;2023-07-20T07:28:14;5.88;;;2.95;;
6223;SDS011;3145;42.726;23.342;2023-07-20T07:30:41;13.25;;;3.67;;
6223;SDS011;3145;42.726;23.342;2023-07-20T07:33:09;7.43;;;4.68;;
6223;SDS011;3145;42.726;23.342;2023-07-20T07:35:36;7.03;;;3.35;;
6223;SDS011;3145;42.726;23.342;2023-07-20T07:38:03;7.10;;;3.55;;
6223;SDS011;3145;42.726;23.342;2023-07-20T07:40:30;7.70;;;3.10;;
6223;SDS011;3145;42.726;23.342;2023-07-20T07:42:57;8.80;;;3.50;;
6223;SDS011;3145;42.726;23.342;2023-07-20T07:45:24;10.75;;;3.30;;
6223;SDS011;3145;42.726;23.342;2023-07-20T07:47:50;5.90;;;3.83;;
6223;SDS011;3145;42.726;23.342;2023-07-20T07:50:18;8.88;;;3.20;;
6223;SDS011;3145;42.726;23.342;2023-07-20T07:52:45;9.30;;;3.53;;
6223;SDS011;3145;42.726;23.342;2023-07-20T07:55:12;8.50;;;3.75;;
6223;SDS011;3145;42.726;23.342;2023-07-20T07:57:41;9.80;;;4.32;;
6223;SDS011;3145;42.726;23.342;2023-07-20T08:00:08;7.85;;;3.65;;
6223;SDS011;3145;42.726;23.342;2023-07-20T08:02:39;8.40;;;3.90;;
6223;SDS011;3145;42.726;23.342;2023-07-20T08:05:07;9.80;;;3.92;;
6223;SDS011;3145;42.726;23.342;2023-07-20T08:07:35;15.68;;;8.68;;
6223;SDS011;3145;42.726;23.342;2023-07-20T08:10:02;12.63;;;3.65;;
6223;SDS011;3145;42.726;23.342;2023-07-20T08:12:29;10.70;;;4.20;;
6223;SDS011;3145;42.726;23.342;2023-07-20T08:14:56;7.47;;;2.92;;
6223;SDS011;3145;42.726;23.342;2023-07-20T08:17:23;12.15;;;6.97;;
6223;SDS011;3145;42.726;23.342;2023-07-20T08:19:50;14.38;;;5.50;;
6223;SDS011;3145;42.726;23.342;2023-07-20T08:22:17;19.85;;;4.53;;
6223;SDS011;3145;42.726;23.342;2023-07-20T08:24:45;22.13;;;5.00;;
6223;SDS011;3145;42.726;23.342;2023-07-20T08:27:12;22.85;;;4.15;;
6223;SDS011;3145;42.726;23.342;2023-07-20T08:29:39;11.93;;;3.35;;
6223;SDS011;3145;42.726;23.342;2023-07-20T08:32:06;11.63;;;3.20;;
6223;SDS011;3145;42.726;23.342;2023-07-20T08:34:33;5.68;;;2.45;;
6223;SDS011;3145;42.726;23.342;2023-07-20T08:37:00;7.72;;;2.40;;
6223;SDS011;3145;42.726;23.342;2023-07-20T08:39:26;9.93;;;2.30;;
6223;SDS011;3145;42.726;23.342;2023-07-20T08:41:55;11.07;;;2.85;;
6223;SDS011;3145;42.726;23.342;2023-07-20T08:44:22;10.27;;;2.95;;
6223;SDS011;3145;42.726;23.342;2023-07-20T08:46:49;6.85;;;3.40;;
6223;SDS011;3145;42.726;23.342;2023-07-20T08:49:18;11.43;;;3.13;;
6223;SDS011;3145;42.726;23.342;2023-07-20T08:51:45;9.15;;;2.45;;
6223;SDS011;3145;42.726;23.342;2023-07-20T08:54:13;5.55;;;2.70;;
6223;SDS011;3145;42.726;23.342;2023-07-20T08:56:40;7.60;;;2.30;;
6223;SDS011;3145;42.726;23.342;2023-07-20T08:59:10;11.68;;;2.33;;
6223;SDS011;3145;42.726;23.342;2023-07-20T09:01:38;3.22;;;2.72;;
6223;SDS011;3145;42.726;23.342;2023-07-20T09:04:06;7.03;;;2.47;;
6223;SDS011;3145;42.726;23.342;2023-07-20T09:06:33;7.18;;;2.40;;
6223;SDS011;3145;42.726;23.342;2023-07-20T09:09:01;11.98;;;2.47;;
6223;SDS011;3145;42.726;23.342;2023-07-20T09:11:28;7.43;;;2.95;;
6223;SDS011;3145;42.726;23.342;2023-07-20T09:14:04;9.20;;;2.78;;
6223;SDS011;3145;42.726;23.342;2023-07-20T09:16:34;10.68;;;2.53;;
6223;SDS011;3145;42.726;23.342;2023-07-20T09:19:14;8.38;;;2.28;;
6223;SDS011;3145;42.726;23.342;2023-07-20T09:21:43;6.35;;;2.05;;
6223;SDS011;3145;42.726;23.342;2023-07-20T09:24:11;7.72;;;2.75;;
6223;SDS011;3145;42.726;23.342;2023-07-20T09:26:40;5.88;;;2.15;;
6223;SDS011;3145;42.726;23.342;2023-07-20T09:29:08;6.68;;;2.08;;
6223;SDS011;3145;42.726;23.342;2023-07-20T09:31:36;4.97;;;2.58;;
6223;SDS011;3145;42.726;23.342;2023-07-20T09:34:04;6.07;;;2.00;;
6223;SDS011;3145;42.726;23.342;2023-07-20T09:36:32;8.90;;;2.50;;
6223;SDS011;3145;42.726;23.342;2023-07-20T09:38:59;10.82;;;2.42;;
6223;SDS011;3145;42.726;23.342;2023-07-20T09:41:27;11.95;;;2.17;;
6223;SDS011;3145;42.726;23.342;2023-07-20T09:43:53;6.88;;;2.60;;
6223;SDS011;3145;42.726;23.342;2023-07-20T09:46:20;9.10;;;2.67;;
6223;SDS011;3145;42.726;23.342;2023-07-20T09:48:52;5.55;;;1.70;;
6223;SDS011;3145;42.726;23.342;2023-07-20T09:51:20;6.95;;;2.50;;
6223;SDS011;3145;42.726;23.342;2023-07-20T09:53:48;4.88;;;2.33;;
6223;SDS011;3145;42.726;23.342;2023-07-20T09:56:15;10.13;;;2.42;;
6223;SDS011;3145;42.726;23.342;2023-07-20T09:58:43;5.70;;;2.33;;
6223;SDS011;3145;42.726;23.342;2023-07-20T10:01:12;6.82;;;2.13;;
6223;SDS011;3145;42.726;23.342;2023-07-20T10:03:42;9.15;;;2.13;;
6223;SDS011;3145;42.726;23.342;2023-07-20T10:06:15;3.83;;;1.98;;
6223;SDS011;3145;42.726;23.342;2023-07-20T10:08:46;7.57;;;2.15;;
6223;SDS011;3145;42.726;23.342;2023-07-20T10:11:15;5.53;;;2.10;;
6223;SDS011;3145;42.726;23.342;2023-07-20T10:13:43;7.22;;;2.33;;
6223;SDS011;3145;42.726;23.342;2023-07-20T10:16:11;5.45;;;2.20;;
6223;SDS011;3145;42.726;23.342;2023-07-20T10:18:46;6.32;;;2.65;;
6223;SDS011;3145;42.726;23.342;2023-07-20T10:21:19;10.18;;;2.50;;
6223;SDS011;3145;42.726;23.342;2023-07-20T10:23:48;8.25;;;2.58;;
6223;SDS011;3145;42.726;23.342;2023-07-20T10:26:15;8.20;;;2.00;;
6223;SDS011;3145;42.726;23.342;2023-07-20T10:28:42;6.57;;;2.13;;
6223;SDS011;3145;42.726;23.342;2023-07-20T10:31:11;5.40;;;2.10;;
6223;SDS011;3145;42.726;23.342;2023-07-20T10:33:39;12.20;;;2.22;;
6223;SDS011;3145;42.726;23.342;2023-07-20T10:36:06;10.07;;;2.38;;
6223;SDS011;3145;42.726;23.342;2023-07-20T10:38:39;6.78;;;2.00;;
6223;SDS011;3145;42.726;23.342;2023-07-20T10:41:15;4.43;;;2.30;;
6223;SDS011;3145;42.726;23.342;2023-07-20T10:43:43;5.07;;;1.77;;
6223;SDS011;3145;42.726;23.342;2023-07-20T10:46:10;9.57;;;2.63;;
6223;SDS011;3145;42.726;23.342;2023-07-20T10:48:58;7.10;;;2.38;;
6223;SDS011;3145;42.726;23.342;2023-07-20T10:51:25;5.22;;;1.92;;
6223;SDS011;3145;42.726;23.342;2023-07-20T10:53:54;7.53;;;2.35;;
6223;SDS011;3145;42.726;23.342;2023-07-20T10:56:22;7.47;;;2.63;;
6223;SDS011;3145;42.726;23.342;2023-07-20T10:58:54;6.18;;;2.00;;
6223;SDS011;3145;42.726;23.342;2023-07-20T11:01:27;6.15;;;2.20;;
6223;SDS011;3145;42.726;23.342;2023-07-20T11:03:56;8.35;;;2.65;;
6223;SDS011;3145;42.726;23.342;2023-07-20T11:06:31;6.90;;;2.28;;
6223;SDS011;3145;42.726;23.342;2023-07-20T11:09:08;6.25;;;1.73;;
6223;SDS011;3145;42.726;23.342;2023-07-20T11:11:36;8.88;;;2.83;;
6223;SDS011;3145;42.726;23.342;2023-07-20T11:14:04;12.25;;;4.97;;
6223;SDS011;3145;42.726;23.342;2023-07-20T11:16:40;9.35;;;2.75;;
6223;SDS011;3145;42.726;23.342;2023-07-20T11:19:13;7.38;;;2.10;;
6223;SDS011;3145;42.726;23.342;2023-07-20T11:21:42;5.07;;;1.85;;
6223;SDS011;3145;42.726;23.342;2023-07-20T11:24:11;7.03;;;1.60;;
6223;SDS011;3145;42.726;23.342;2023-07-20T11:26:45;10.02;;;2.33;;
6223;SDS011;3145;42.726;23.342;2023-07-20T11:29:14;6.75;;;3.78;;
6223;SDS011;3145;42.726;23.342;2023-07-20T11:31:42;7.95;;;3.08;;
6223;SDS011;3145;42.726;23.342;2023-07-20T11:34:11;5.93;;;2.35;;
6223;SDS011;3145;42.726;23.342;2023-07-20T11:36:39;7.63;;;2.40;;
6223;SDS011;3145;42.726;23.342;2023-07-20T11:39:08;5.60;;;2.85;;
6223;SDS011;3145;42.726;23.342;2023-07-20T11:41:36;4.72;;;2.70;;
6223;SDS011;3145;42.726;23.342;2023-07-20T11:44:05;6.68;;;2.47;;
6223;SDS011;3145;42.726;23.342;2023-07-20T11:46:32;8.82;;;2.50;;
6223;SDS011;3145;42.726;23.342;2023-07-20T11:49:00;8.27;;;2.25;;
6223;SDS011;3145;42.726;23.342;2023-07-20T11:51:28;5.03;;;2.60;;
6223;SDS011;3145;42.726;23.342;2023-07-20T11:53:55;5.95;;;2.63;;
6223;SDS011;3145;42.726;23.342;2023-07-20T11:56:23;7.47;;;3.13;;
6223;SDS011;3145;42.726;23.342;2023-07-20T11:58:53;9.55;;;2.65;;
6223;SDS011;3145;42.726;23.342;2023-07-20T12:01:22;7.97;;;1.80;;
6223;SDS011;3145;42.726;23.342;2023-07-20T12:03:49;9.18;;;2.47;;
6223;SDS011;3145;42.726;23.342;2023-07-20T12:06:16;10.98;;;2.70;;
6223;SDS011;3145;42.726;23.342;2023-07-20T12:08:44;13.82;;;2.25;;
6223;SDS011;3145;42.726;23.342;2023-07-20T12:11:11;5.82;;;2.55;;
6223;SDS011;3145;42.726;23.342;2023-07-20T12:13:38;7.72;;;3.03;;
6223;SDS011;3145;42.726;23.342;2023-07-20T12:16:11;8.65;;;2.65;;
6223;SDS011;3145;42.726;23.342;2023-07-20T12:18:39;7.28;;;2.65;;
6223;SDS011;3145;42.726;23.342;2023-07-20T12:21:06;5.60;;;2.47;;
6223;SDS011;3145;42.726;23.342;2023-07-20T12:23:40;7.03;;;3.10;;
6223;SDS011;3145;42.726;23.342;2023-07-20T12:26:09;7.68;;;2.33;;
6223;SDS011;3145;42.726;23.342;2023-07-20T12:28:39;9.18;;;2.50;;
6223;SDS011;3145;42.726;23.342;2023-07-20T12:31:07;11.95;;;3.00;;
6223;SDS011;3145;42.726;23.342;2023-07-20T12:33:36;5.57;;;3.03;;
6223;SDS011;3145;42.726;23.342;2023-07-20T12:36:04;5.32;;;2.35;;
6223;SDS011;3145;42.726;23.342;2023-07-20T12:38:31;5.90;;;2.72;;
6223;SDS011;3145;42.726;23.342;2023-07-20T12:40:59;5.60;;;2.10;;
6223;SDS011;3145;42.726;23.342;2023-07-20T12:43:27;5.78;;;2.80;;
6223;SDS011;3145;42.726;23.342;2023-07-20T12:45:54;6.18;;;2.80;;
6223;SDS011;3145;42.726;23.342;2023-07-20T12:48:21;5.80;;;2.47;;
6223;SDS011;3145;42.726;23.342;2023-07-20T12:50:50;6.30;;;2.47;;
6223;SDS011;3145;42.726;23.342;2023-07-20T12:53:16;5.72;;;2.25;;
6223;SDS011;3145;42.726;23.342;2023-07-20T12:55:43;6.63;;;2.22;;
6223;SDS011;3145;42.726;23.342;2023-07-20T12:58:11;6.97;;;2.80;;
6223;SDS011;3145;42.726;23.342;2023-07-20T13:00:38;6.70;;;2.17;;
6223;SDS011;3145;42.726;23.342;2023-07-20T13:03:05;10.05;;;2.65;;
6223;SDS011;3145;42.726;23.342;2023-07-20T13:05:33;7.07;;;2.42;;
6223;SDS011;3145;42.726;23.342;2023-07-20T13:08:02;6.20;;;2.00;;
6223;SDS011;3145;42.726;23.342;2023-07-20T13:10:30;12.13;;;2.50;;
6223;SDS011;3145;42.726;23.342;2023-07-20T13:12:57;7.93;;;2.35;;
6223;SDS011;3145;42.726;23.342;2023-07-20T13:15:24;8.40;;;2.47;;
6223;SDS011;3145;42.726;23.342;2023-07-20T13:17:55;7.63;;;2.30;;
6223;SDS011;3145;42.726;23.342;2023-07-20T13:20:22;7.93;;;2.28;;
6223;SDS011;3145;42.726;23.342;2023-07-20T13:22:49;8.20;;;3.03;;
6223;SDS011;3145;42.726;23.342;2023-07-20T13:25:17;4.95;;;2.20;;
6223;SDS011;3145;42.726;23.342;2023-07-20T13:27:44;6.10;;;1.98;;
6223;SDS011;3145;42.726;23.342;2023-07-20T13:30:11;5.88;;;1.75;;
6223;SDS011;3145;42.726;23.342;2023-07-20T13:32:41;9.50;;;2.25;;
6223;SDS011;3145;42.726;23.342;2023-07-20T13:35:08;5.65;;;1.95;;
6223;SDS011;3145;42.726;23.342;2023-07-20T13:37:35;5.28;;;1.98;;
6223;SDS011;3145;42.726;23.342;2023-07-20T13:40:02;3.50;;;1.70;;
6223;SDS011;3145;42.726;23.342;2023-07-20T13:42:31;8.70;;;2.17;;
6223;SDS011;3145;42.726;23.342;2023-07-20T13:44:58;4.95;;;1.80;;
6223;SDS011;3145;42.726;23.342;2023-07-20T13:47:25;9.52;;;2.20;;
6223;SDS011;3145;42.726;23.342;2023-07-20T13:49:52;6.10;;;1.63;;
6223;SDS011;3145;42.726;23.342;2023-07-20T13:52:19;3.50;;;1.50;;
6223;SDS011;3145;42.726;23.342;2023-07-20T13:54:46;7.15;;;2.00;;
6223;SDS011;3145;42.726;23.342;2023-07-20T13:57:12;4.35;;;2.22;;
6223;SDS011;3145;42.726;23.342;2023-07-20T13:59:41;12.70;;;2.67;;
6223;SDS011;3145;42.726;23.342;2023-07-20T14:02:08;5.82;;;1.83;;
6223;SDS011;3145;42.726;23.342;2023-07-20T14:04:35;8.25;;;1.88;;
6223;SDS011;3145;42.726;23.342;2023-07-20T14:07:02;9.80;;;2.03;;
6223;SDS011;3145;42.726;23.342;2023-07-20T14:09:29;8.25;;;1.70;;
6223;SDS011;3145;42.726;23.342;2023-07-20T14:11:55;6.70;;;1.92;;
6223;SDS011;3145;42.726;23.342;2023-07-20T14:14:22;6.82;;;2.17;;
6223;SDS011;3145;42.726;23.342;2023-07-20T14:16:50;8.27;;;2.10;;
6223;SDS011;3145;42.726;23.342;2023-07-20T14:19:17;13.70;;;2.42;;
6223;SDS011;3145;42.726;23.342;2023-07-20T14:21:43;10.80;;;2.42;;
6223;SDS011;3145;42.726;23.342;2023-07-20T14:24:10;5.82;;;1.85;;
6223;SDS011;3145;42.726;23.342;2023-07-20T14:26:37;7.00;;;2.00;;
6223;SDS011;3145;42.726;23.342;2023-07-20T14:29:04;3.75;;;1.80;;
6223;SDS011;3145;42.726;23.342;2023-07-20T14:31:30;9.93;;;2.20;;
6223;SDS011;3145;42.726;23.342;2023-07-20T14:33:58;5.55;;;1.83;;
6223;SDS011;3145;42.726;23.342;2023-07-20T14:36:25;10.65;;;2.20;;
6223;SDS011;3145;42.726;23.342;2023-07-20T14:38:52;8.98;;;2.22;;
6223;SDS011;3145;42.726;23.342;2023-07-20T14:41:19;5.85;;;1.75;;
6223;SDS011;3145;42.726;23.342;2023-07-20T14:43:46;9.43;;;1.60;;
6223;SDS011;3145;42.726;23.342;2023-07-20T14:46:13;6.60;;;2.13;;
6223;SDS011;3145;42.726;23.342;2023-07-20T14:48:39;3.85;;;1.88;;
6223;SDS011;3145;42.726;23.342;2023-07-20T14:51:08;6.18;;;1.88;;
6223;SDS011;3145;42.726;23.342;2023-07-20T14:53:35;5.18;;;2.13;;
6223;SDS011;3145;42.726;23.342;2023-07-20T14:56:01;3.20;;;1.80;;
6223;SDS011;3145;42.726;23.342;2023-07-20T14:58:29;6.97;;;1.88;;
6223;SDS011;3145;42.726;23.342;2023-07-20T15:00:56;5.20;;;1.90;;
6223;SDS011;3145;42.726;23.342;2023-07-20T15:03:22;4.68;;;2.10;;